createdAt,value
2018-07-03T00:02:26.159Z,42.14
2018-07-03T00:05:00.308Z,43.05
2018-07-03T00:07:34.973Z,43.11
2018-07-03T00:10:12.669Z,43.44
2018-07-03T00:12:47.559Z,44.24
2018-07-03T00:15:22.635Z,43.25
2018-07-03T00:17:57.587Z,44.30
2018-07-03T00:20:32.994Z,43.89
2018-07-03T00:23:08.408Z,43.64
2018-07-03T00:25:42.625Z,43.35
2018-07-03T00:28:13.910Z,44.21
2018-07-03T00:30:47.665Z,43.95
2018-07-03T00:33:19.250Z,44.20
2018-07-03T00:35:50.540Z,44.92
2018-07-03T00:38:21.867Z,44.92
2018-07-03T00:40:57.040Z,44.33
2018-07-03T00:43:32.577Z,43.74
2018-07-03T00:46:07.480Z,44.37
2018-07-03T00:48:42.965Z,44.71
2018-07-03T00:51:17.117Z,44.32
2018-07-03T00:53:52.651Z,44.58
2018-07-03T00:56:23.866Z,45.58
2018-07-03T00:58:56.698Z,45.92
2018-07-03T01:01:32.524Z,45.72
2018-07-03T01:04:08.736Z,45.40
2018-07-03T01:06:43.490Z,45.46
2018-07-03T01:09:18.412Z,45.77
2018-07-03T01:11:54.607Z,45.62
2018-07-03T01:14:30.353Z,45.67
2018-07-03T01:17:04.373Z,46.41
2018-07-03T01:19:38.427Z,45.90
2018-07-03T01:22:14.017Z,46.68
2018-07-03T01:24:49.742Z,46.07
2018-07-03T01:27:25.099Z,46.38
2018-07-03T01:30:01.052Z,47.64
2018-07-03T01:32:36.968Z,46.48
2018-07-03T01:35:12.290Z,46.93
2018-07-03T01:37:47.468Z,46.62
2018-07-03T01:40:22.777Z,46.92
2018-07-03T01:42:59.299Z,47.25
2018-07-03T01:45:31.409Z,47.87
2018-07-03T01:48:04.236Z,47.86
2018-07-03T01:50:35.777Z,47.96
2018-07-03T01:53:10.463Z,48.51
2018-07-03T01:55:46.284Z,47.92
2018-07-03T01:58:21.766Z,47.76
2018-07-03T02:00:56.454Z,47.80
2018-07-03T02:03:31.432Z,48.06
2018-07-03T02:06:04.214Z,47.82
2018-07-03T02:08:39.809Z,48.09
2018-07-03T02:11:14.722Z,47.91
2018-07-03T02:13:50.305Z,47.58
2018-07-03T02:16:25.814Z,46.63
2018-07-03T02:19:01.192Z,45.84
2018-07-03T02:21:37.379Z,46.75
2018-07-03T02:24:13.102Z,46.64
2018-07-03T02:26:47.300Z,47.61
2018-07-03T02:29:22.084Z,47.67
2018-07-03T02:31:53.409Z,47.65
2018-07-03T02:34:27.414Z,47.56
2018-07-03T02:37:03.130Z,48.54
2018-07-03T02:39:38.744Z,48.56
2018-07-03T02:42:10.772Z,49.37
2018-07-03T02:44:42.006Z,49.31
2018-07-03T02:47:16.404Z,49.44
2018-07-03T02:49:51.623Z,49.05
2018-07-03T02:52:22.691Z,49.40
2018-07-03T02:54:57.008Z,50.24
2018-07-03T02:57:33.205Z,48.79
2018-07-03T03:00:10.054Z,48.74
2018-07-03T03:02:44.468Z,50.00
2018-07-03T03:05:18.216Z,50.44
2018-07-03T03:07:49.425Z,50.76
2018-07-03T03:10:20.709Z,50.64
2018-07-03T03:12:52.853Z,49.52
2018-07-03T03:15:24.324Z,50.49
2018-07-03T03:17:57.680Z,50.56
2018-07-03T03:20:30.889Z,51.16
2018-07-03T03:23:05.890Z,50.93
2018-07-03T03:25:40.595Z,51.26
2018-07-03T03:28:15.326Z,51.39
2018-07-03T03:30:49.713Z,51.66
2018-07-03T03:33:23.847Z,52.00
2018-07-03T03:35:58.809Z,51.57
2018-07-03T03:38:32.478Z,52.17
2018-07-03T03:41:05.315Z,51.49
2018-07-03T03:43:41.088Z,51.77
2018-07-03T03:46:16.363Z,51.81
2018-07-03T03:48:52.563Z,51.83
2018-07-03T03:51:27.934Z,52.09
2018-07-03T03:54:03.208Z,52.67
2018-07-03T03:56:38.855Z,52.04
2018-07-03T03:59:15.337Z,51.96
2018-07-03T04:01:49.895Z,52.95
2018-07-03T04:04:22.042Z,52.50
2018-07-03T04:06:53.290Z,52.04
2018-07-03T04:09:26.389Z,52.75
2018-07-03T04:12:01.514Z,52.74
2018-07-03T04:14:36.557Z,52.27
2018-07-03T04:17:11.928Z,53.06
2018-07-03T04:19:45.030Z,53.27
2018-07-03T04:22:20.713Z,52.60
2018-07-03T04:24:57.209Z,52.39
2018-07-03T04:27:30.879Z,52.27
2018-07-03T04:30:05.763Z,50.87
2018-07-03T04:32:41.798Z,50.88
2018-07-03T04:35:18.236Z,50.53
2018-07-03T04:37:52.634Z,48.77
2018-07-03T04:40:26.250Z,48.87
2018-07-03T04:42:57.608Z,49.51
2018-07-03T04:45:29.624Z,49.29
2018-07-03T04:48:05.708Z,49.69
2018-07-03T04:50:42.019Z,49.86
2018-07-03T04:53:17.865Z,48.72
2018-07-03T04:55:53.940Z,49.32
2018-07-03T04:58:28.438Z,48.33
2018-07-03T05:01:03.402Z,47.85
2018-07-03T05:03:37.885Z,48.02
2018-07-03T05:06:13.246Z,47.51
2018-07-03T05:08:47.115Z,47.93
2018-07-03T05:11:21.817Z,47.07
2018-07-03T05:13:53.318Z,47.54
2018-07-03T05:16:29.166Z,47.57
2018-07-03T05:19:04.489Z,47.98
2018-07-03T05:21:41.014Z,47.49
2018-07-03T05:24:17.076Z,47.73
2018-07-03T05:26:52.780Z,48.02
2018-07-03T05:29:27.324Z,48.59
2018-07-03T05:32:00.651Z,48.54
2018-07-03T05:34:36.236Z,48.17
2018-07-03T05:37:08.928Z,48.00
2018-07-03T05:39:40.354Z,47.67
2018-07-03T05:42:16.007Z,47.75
2018-07-03T05:44:47.492Z,48.06
2018-07-03T05:47:20.906Z,47.13
2018-07-03T05:49:57.338Z,47.17
2018-07-03T05:52:31.244Z,47.35
2018-07-03T05:55:06.257Z,47.22
2018-07-03T05:57:42.278Z,46.72
2018-07-03T06:00:16.526Z,47.48
2018-07-03T06:02:49.766Z,46.45
2018-07-03T06:05:22.476Z,45.54
2018-07-03T06:07:56.888Z,45.67
2018-07-03T06:10:28.363Z,45.16
2018-07-03T06:13:02.974Z,44.61
2018-07-03T06:15:38.248Z,44.66
2018-07-03T06:18:14.776Z,43.67
2018-07-03T06:20:49.750Z,43.21
2018-07-03T06:23:25.276Z,43.11
2018-07-03T06:26:00.170Z,43.16
2018-07-03T06:28:34.860Z,43.09
2018-07-03T06:31:08.527Z,41.81
2018-07-03T06:33:43.368Z,41.63
2018-07-03T06:39:22.337Z,39.49
2018-07-03T06:41:53.684Z,38.77
2018-07-03T06:44:25.612Z,38.04
2018-07-03T06:47:00.581Z,37.71
2018-07-03T06:49:34.641Z,38.25
2018-07-03T06:52:10.297Z,38.39
2018-07-03T06:54:45.109Z,38.75
2018-07-03T06:57:20.194Z,37.54
2018-07-03T06:59:52.477Z,37.51
2018-07-03T07:02:23.781Z,37.64
2018-07-03T07:04:56.999Z,37.70
2018-07-03T07:07:32.241Z,36.29
2018-07-03T07:10:07.660Z,36.41
2018-07-03T07:12:42.884Z,36.76
2018-07-03T07:15:18.037Z,35.99
2018-07-03T07:17:53.265Z,36.54
2018-07-03T07:20:27.250Z,35.76
2018-07-03T07:23:01.918Z,36.00
2018-07-03T07:25:33.669Z,36.94
2018-07-03T07:28:08.854Z,36.87
2018-07-03T07:30:40.733Z,35.49
2018-07-03T07:33:13.517Z,35.20
2018-07-03T07:35:45.444Z,33.07
2018-07-03T07:38:19.730Z,32.77
2018-07-03T07:40:54.236Z,32.36
2018-07-03T07:43:29.650Z,32.61
2018-07-03T07:46:04.238Z,31.92
2018-07-03T07:48:40.679Z,31.01
2018-07-03T07:51:15.419Z,31.70
2018-07-03T07:53:50.335Z,30.37
2018-07-03T07:56:25.174Z,30.54
2018-07-03T07:58:58.453Z,30.53
2018-07-03T08:01:33.717Z,30.60
2018-07-03T08:04:06.726Z,30.06
2018-07-03T08:06:38.009Z,30.86
2018-07-03T08:09:13.319Z,29.47
2018-07-03T08:11:48.264Z,28.42
2018-07-03T08:14:23.242Z,29.19
2018-07-03T08:16:58.669Z,28.85
2018-07-03T08:19:33.260Z,28.02
2018-07-03T08:22:09.089Z,27.32
2018-07-03T08:24:43.260Z,27.37
2018-07-03T08:27:15.591Z,28.91
2018-07-03T08:29:47.096Z,27.55
2018-07-03T08:32:22.769Z,28.23
2018-07-03T08:34:57.488Z,28.88
2018-07-03T08:37:33.707Z,27.84
2018-07-03T08:40:08.210Z,26.72
2018-07-03T08:42:47.581Z,27.21
2018-07-03T08:46:02.227Z,26.16
2018-07-03T08:48:57.368Z,27.81
2018-07-03T08:51:46.078Z,26.68
2018-07-03T08:54:26.931Z,26.37
2018-07-03T08:57:10.628Z,26.51
2018-07-03T09:00:40.569Z,26.41
2018-07-03T09:03:22.726Z,24.97
2018-07-03T09:06:13.355Z,25.25
2018-07-03T09:09:02.398Z,23.77
2018-07-03T09:11:43.550Z,24.44
2018-07-03T09:14:22.588Z,24.50
2018-07-03T09:17:11.944Z,24.30
2018-07-03T09:19:52.502Z,23.39
2018-07-03T09:22:52.909Z,23.59
2018-07-03T09:25:34.879Z,23.10
2018-07-03T09:28:19.655Z,23.16
2018-07-03T09:31:06.436Z,21.82
2018-07-03T09:33:52.328Z,21.56
2018-07-03T09:43:01.242Z,20.44
2018-07-03T09:45:37.797Z,20.98
2018-07-03T09:48:09.561Z,21.31
2018-07-03T09:50:45.905Z,20.54
2018-07-03T09:53:22.781Z,21.30
2018-07-03T09:56:07.395Z,20.18
2018-07-03T09:58:43.316Z,20.21
2018-07-03T10:01:20.510Z,20.09
2018-07-03T10:03:51.974Z,20.64
2018-07-03T10:06:26.720Z,22.11
2018-07-03T10:08:58.920Z,22.66
2018-07-03T10:11:35.429Z,24.12
2018-07-03T10:14:11.146Z,22.84
2018-07-03T10:16:44.800Z,24.24
2018-07-03T10:19:20.453Z,25.14
2018-07-03T10:21:55.059Z,24.12
2018-07-03T10:24:30.894Z,23.89
2018-07-03T10:27:05.096Z,24.41
2018-07-03T10:29:40.299Z,24.16
2018-07-03T10:32:11.870Z,23.23
2018-07-03T10:34:47.667Z,23.75
2018-07-03T10:37:19.098Z,23.73
2018-07-03T10:39:51.281Z,22.84
2018-07-03T10:42:31.805Z,22.99
2018-07-03T10:45:03.402Z,23.24
2018-07-03T10:47:34.727Z,23.01
2018-07-03T10:50:06.332Z,23.51
2018-07-03T10:52:37.107Z,23.41
2018-07-03T10:55:08.032Z,23.57
2018-07-03T10:57:39.107Z,22.31
2018-07-03T11:00:10.018Z,23.13
2018-07-03T11:02:40.821Z,22.00
2018-07-03T11:05:11.929Z,22.33
2018-07-03T11:07:42.951Z,22.16
2018-07-03T11:10:14.021Z,23.06
2018-07-03T11:12:45.276Z,22.58
2018-07-03T11:15:16.085Z,22.89
2018-07-03T11:17:47.558Z,22.99
2018-07-03T11:20:18.799Z,23.70
2018-07-03T11:22:49.677Z,22.60
2018-07-03T11:25:20.666Z,22.33
2018-07-03T11:27:51.869Z,21.96
2018-07-03T11:30:22.965Z,21.83
2018-07-03T11:32:54.075Z,21.20
2018-07-03T11:35:25.242Z,21.87
2018-07-03T11:37:56.423Z,21.17
2018-07-03T11:40:27.505Z,22.05
2018-07-03T11:42:58.633Z,21.95
2018-07-03T11:45:29.888Z,21.69
2018-07-03T11:48:00.983Z,21.88
2018-07-03T11:50:32.425Z,22.09
2018-07-03T11:53:03.528Z,22.09
2018-07-03T11:55:34.601Z,22.28
2018-07-03T11:58:05.722Z,22.56
2018-07-03T12:00:36.739Z,22.96
2018-07-03T12:03:07.596Z,23.31
2018-07-03T12:05:38.431Z,23.80
2018-07-03T12:08:09.512Z,23.98
2018-07-03T12:10:40.597Z,23.96
2018-07-03T12:13:11.705Z,23.97
2018-07-03T12:15:42.813Z,23.78
2018-07-03T12:18:19.367Z,23.12
2018-07-03T12:20:50.948Z,23.54
2018-07-03T12:23:22.034Z,23.98
2018-07-03T12:25:53.094Z,23.85
2018-07-03T12:28:24.315Z,23.98
2018-07-03T12:30:55.124Z,24.58
2018-07-03T12:33:25.969Z,24.72
2018-07-03T12:35:56.734Z,23.85
2018-07-03T12:38:27.504Z,24.94
2018-07-03T12:40:58.617Z,23.83
2018-07-03T12:43:29.677Z,23.28
2018-07-03T12:46:00.818Z,22.83
2018-07-03T12:48:31.935Z,23.08
2018-07-03T12:51:03.979Z,24.02
2018-07-03T12:53:34.755Z,24.62
2018-07-03T12:56:05.912Z,24.66
2018-07-03T12:58:37.079Z,23.39
2018-07-03T13:01:08.677Z,24.21
2018-07-03T13:03:40.197Z,23.21
2018-07-03T13:06:11.367Z,24.00
2018-07-03T13:08:42.590Z,23.86
2018-07-03T13:11:14.353Z,23.23
2018-07-03T13:13:45.717Z,24.70
2018-07-03T13:16:16.906Z,24.81
2018-07-03T13:18:50.994Z,23.30
2018-07-03T13:21:22.845Z,24.24
2018-07-03T13:23:53.947Z,24.23
2018-07-03T13:26:25.122Z,24.41
2018-07-03T13:28:56.226Z,23.81
2018-07-03T13:31:27.042Z,24.82
2018-07-03T13:33:58.193Z,24.44
2018-07-03T13:36:29.390Z,24.16
2018-07-03T13:39:00.588Z,25.05
2018-07-03T13:41:31.442Z,24.15
2018-07-03T13:44:02.491Z,24.75
2018-07-03T13:46:33.799Z,23.53
2018-07-03T13:49:05.156Z,24.58
2018-07-03T13:51:36.292Z,24.36
2018-07-03T13:54:07.411Z,23.10
2018-07-03T13:56:38.576Z,24.17
2018-07-03T13:59:09.924Z,23.46
2018-07-03T14:01:41.189Z,23.68
2018-07-03T14:04:12.401Z,23.00
2018-07-03T14:06:43.910Z,23.19
2018-07-03T14:09:14.915Z,23.31
2018-07-03T14:11:46.116Z,23.28
2018-07-03T14:14:17.197Z,23.42
2018-07-03T14:16:48.443Z,23.34
2018-07-03T14:19:19.457Z,23.20
2018-07-03T14:21:50.499Z,23.21
2018-07-03T14:24:22.113Z,23.81
2018-07-03T14:26:53.457Z,23.03
2018-07-03T14:29:24.579Z,22.43
2018-07-03T14:31:55.611Z,22.52
2018-07-03T14:34:26.636Z,24.02
2018-07-03T14:36:57.723Z,23.46
2018-07-03T14:39:28.974Z,24.11
2018-07-03T14:42:00.177Z,22.88
2018-07-03T14:44:31.199Z,22.96
2018-07-03T14:47:07.922Z,22.78
2018-07-03T14:49:40.637Z,22.48
2018-07-03T14:52:11.729Z,23.18
2018-07-03T14:57:46.565Z,22.57
2018-07-03T15:00:18.063Z,23.38
2018-07-03T15:02:48.900Z,23.72
2018-07-03T15:05:20.110Z,23.53
2018-07-03T15:07:51.203Z,22.40
2018-07-03T15:10:22.607Z,22.76
2018-07-03T15:12:53.801Z,23.58
2018-07-03T15:15:25.177Z,24.04
2018-07-03T15:17:56.074Z,22.49
2018-07-03T15:20:26.943Z,22.21
2018-07-03T15:22:58.014Z,22.85
2018-07-03T15:25:28.880Z,23.38
2018-07-03T15:27:59.967Z,23.63
2018-07-03T15:30:31.371Z,22.60
2018-07-03T15:33:02.127Z,23.51
2018-07-03T15:35:32.882Z,22.47
2018-07-03T15:38:03.926Z,22.37
2018-07-03T15:40:35.035Z,22.50
2018-07-03T15:43:06.231Z,22.73
2018-07-03T15:45:37.058Z,22.39
2018-07-03T15:48:07.896Z,22.20
2018-07-03T15:50:49.908Z,22.20
2018-07-03T15:53:21.901Z,22.41
2018-07-03T15:55:54.333Z,22.59
2018-07-03T15:58:27.631Z,23.13
2018-07-03T16:00:58.796Z,23.35
2018-07-03T16:07:09.853Z,22.31
2018-07-03T16:09:40.695Z,23.64
2018-07-03T16:12:11.714Z,22.71
2018-07-03T16:14:43.093Z,22.49
2018-07-03T16:17:14.258Z,22.27
2018-07-03T16:19:50.566Z,23.28
2018-07-03T16:22:21.338Z,22.28
2018-07-03T16:24:52.122Z,22.98
2018-07-03T16:27:23.342Z,23.42
2018-07-03T16:29:54.405Z,23.54
2018-07-03T16:32:25.429Z,23.52
2018-07-03T16:34:56.816Z,23.97
2018-07-03T16:37:27.586Z,22.88
2018-07-03T16:39:58.606Z,23.30
2018-07-03T16:42:34.032Z,23.91
2018-07-03T16:45:04.849Z,22.88
2018-07-03T16:47:35.874Z,23.17
2018-07-03T16:50:07.293Z,23.12
2018-07-03T16:52:38.379Z,23.49
2018-07-03T16:55:10.861Z,23.27
2018-07-03T16:57:41.909Z,22.93
2018-07-03T17:00:16.828Z,23.05
2018-07-03T17:02:47.448Z,24.26
2018-07-03T17:05:18.499Z,24.03
2018-07-03T17:07:49.545Z,23.21
2018-07-03T17:10:20.274Z,24.06
2018-07-03T17:12:50.981Z,24.00
2018-07-03T17:15:22.092Z,24.52
2018-07-03T17:17:53.105Z,24.75
2018-07-03T17:20:24.149Z,24.00
2018-07-03T17:22:55.576Z,24.76
2018-07-03T17:25:26.609Z,24.79
2018-07-03T17:27:59.776Z,24.47
2018-07-03T17:30:31.000Z,24.68
2018-07-03T17:33:02.126Z,24.25
2018-07-03T17:35:33.137Z,23.70
2018-07-03T17:38:04.247Z,23.72
2018-07-03T17:40:52.136Z,24.19
2018-07-03T17:44:12.382Z,24.64
2018-07-03T17:46:43.180Z,24.42
2018-07-03T17:49:14.316Z,23.83
2018-07-03T17:51:45.819Z,22.58
2018-07-03T17:54:16.893Z,24.50
2018-07-03T17:56:47.854Z,24.52
2018-07-03T17:59:18.659Z,23.68
2018-07-03T18:01:51.092Z,24.73
2018-07-03T18:04:22.318Z,24.76
2018-07-03T18:06:53.630Z,23.55
2018-07-03T18:09:25.076Z,24.74
2018-07-03T18:12:01.094Z,24.57
2018-07-03T18:14:32.177Z,24.68
2018-07-03T18:17:05.906Z,25.17
2018-07-03T18:19:45.944Z,23.97
2018-07-03T18:22:21.014Z,24.45
2018-07-03T18:24:52.710Z,24.01
2018-07-03T18:27:23.955Z,24.90
2018-07-03T18:29:56.433Z,24.13
2018-07-03T18:32:31.920Z,25.00
2018-07-03T18:35:04.556Z,23.85
2018-07-03T18:37:39.086Z,24.75
2018-07-03T18:40:14.555Z,24.83
2018-07-03T18:42:49.237Z,24.08
2018-07-03T18:45:22.169Z,24.99
2018-07-03T18:47:57.449Z,24.30
2018-07-03T18:50:28.873Z,25.24
2018-07-03T18:53:00.430Z,25.81
2018-07-03T18:55:31.708Z,25.99
2018-07-03T18:58:02.481Z,25.73
2018-07-03T19:00:33.543Z,26.19
2018-07-03T19:03:05.244Z,25.52
2018-07-03T19:05:36.358Z,25.82
2018-07-03T19:08:08.082Z,25.51
2018-07-03T19:10:39.432Z,25.88
2018-07-03T19:13:10.648Z,26.68
2018-07-03T19:15:41.750Z,27.20
2018-07-03T19:18:12.938Z,26.72
2018-07-03T19:20:44.101Z,27.73
2018-07-03T19:23:15.198Z,26.98
2018-07-03T19:25:46.398Z,26.98
2018-07-03T19:28:17.573Z,27.37
2018-07-03T19:30:48.611Z,28.52
2018-07-03T19:33:20.074Z,27.87
2018-07-03T19:35:51.194Z,28.82
2018-07-03T19:38:22.262Z,29.35
2018-07-03T19:40:53.271Z,30.84
2018-07-03T19:43:28.404Z,31.83
2018-07-03T19:46:00.198Z,32.65
2018-07-03T19:48:31.621Z,32.93
2018-07-03T19:51:02.747Z,32.09
2018-07-03T19:53:34.296Z,32.99
2018-07-03T19:56:05.403Z,32.31
2018-07-03T19:58:36.317Z,33.26
2018-07-03T20:01:07.365Z,33.39
2018-07-03T20:03:38.492Z,33.45
2018-07-03T20:06:10.038Z,33.36
2018-07-03T20:08:41.530Z,33.19
2018-07-03T20:11:12.952Z,34.18
2018-07-03T20:13:44.044Z,34.53
2018-07-03T20:16:15.475Z,33.78
2018-07-03T20:18:46.509Z,33.18
2018-07-03T20:21:17.884Z,33.63
2018-07-03T20:23:48.890Z,34.34
2018-07-03T20:26:20.551Z,34.86
2018-07-03T20:28:51.746Z,35.13
2018-07-03T20:31:23.486Z,35.74
2018-07-03T20:33:54.606Z,34.96
2018-07-03T20:36:25.762Z,35.78
2018-07-03T20:38:56.589Z,36.19
2018-07-03T20:41:27.660Z,36.04
2018-07-03T20:43:58.526Z,36.51
2018-07-03T20:46:29.671Z,35.44
2018-07-03T20:49:01.081Z,35.63
2018-07-03T20:51:32.085Z,36.62
2018-07-03T20:54:03.263Z,37.37
2018-07-03T20:56:34.255Z,36.77
2018-07-03T20:59:06.017Z,36.57
2018-07-03T21:01:37.017Z,36.45
2018-07-03T21:04:08.078Z,36.34
2018-07-03T21:06:40.696Z,36.76
2018-07-03T21:09:12.136Z,37.61
2018-07-03T21:11:43.247Z,36.95
2018-07-03T21:14:14.301Z,37.28
2018-07-03T21:16:45.416Z,37.69
2018-07-03T21:19:20.130Z,37.79
2018-07-03T21:21:51.174Z,37.20
2018-07-03T21:24:22.197Z,36.07
2018-07-03T21:26:53.560Z,35.77
2018-07-03T21:29:24.634Z,36.72
2018-07-03T21:31:55.693Z,36.48
2018-07-03T21:34:26.955Z,36.31
2018-07-03T21:36:58.068Z,36.45
2018-07-03T21:39:29.293Z,36.19
2018-07-03T21:42:00.282Z,36.65
2018-07-03T21:44:31.302Z,37.46
2018-07-03T21:47:02.305Z,38.01
2018-07-03T21:49:33.342Z,37.28
2018-07-03T21:52:04.392Z,38.09
2018-07-03T21:54:35.491Z,37.99
2018-07-03T21:57:06.480Z,38.99
2018-07-03T21:59:37.572Z,38.71
2018-07-03T22:02:08.771Z,39.01
2018-07-03T22:04:39.503Z,40.12
2018-07-03T22:07:10.298Z,40.24
2018-07-03T22:09:41.361Z,40.22
2018-07-03T22:12:12.433Z,40.72
2018-07-03T22:14:43.495Z,42.02
2018-07-03T22:17:14.547Z,42.46
2018-07-03T22:19:45.313Z,42.31
2018-07-03T22:22:16.341Z,42.25
2018-07-03T22:24:47.512Z,41.86
2018-07-03T22:27:18.541Z,42.82
2018-07-03T22:29:49.817Z,42.66
2018-07-03T22:32:20.793Z,43.15
2018-07-03T22:34:51.710Z,42.86
2018-07-03T22:37:22.755Z,43.81
2018-07-03T22:39:53.750Z,43.77
2018-07-03T22:42:24.799Z,43.22
2018-07-03T22:44:55.902Z,44.17
2018-07-03T22:47:27.015Z,45.29
2018-07-03T22:49:58.088Z,45.30
2018-07-03T22:52:29.139Z,45.16
2018-07-03T22:55:00.234Z,44.84
2018-07-03T22:57:31.310Z,46.61
2018-07-03T23:00:02.377Z,46.76
2018-07-03T23:02:32.835Z,46.05
2018-07-03T23:05:03.589Z,47.28
2018-07-03T23:07:34.294Z,47.21
2018-07-03T23:10:05.684Z,47.06
2018-07-03T23:12:36.673Z,46.05
2018-07-03T23:15:07.703Z,46.79
2018-07-03T23:17:38.892Z,47.04
2018-07-03T23:20:10.040Z,45.83
2018-07-03T23:22:41.054Z,45.78
2018-07-03T23:25:11.907Z,46.92
2018-07-03T23:27:42.705Z,46.60
2018-07-03T23:30:13.449Z,45.90
2018-07-03T23:32:44.451Z,45.72
2018-07-03T23:35:15.723Z,46.60
2018-07-03T23:37:46.907Z,45.75
2018-07-03T23:40:17.918Z,45.46
2018-07-03T23:42:49.234Z,46.42
2018-07-03T23:45:20.337Z,46.93
2018-07-03T23:48:08.211Z,46.26
2018-07-03T23:51:01.701Z,46.91
2018-07-03T23:53:55.478Z,46.93
2018-07-03T23:56:49.059Z,46.63
2018-07-03T23:59:42.564Z,47.35
